Time;durP1;ratioP1;P1;durP2;ratioP2;P2;SDS_P1;SDS_P2;PMS_P1;PMS_P2;Temp;Humidity;BMP_temperature;BMP_pressure;BME280_temperature;BME280_humidity;BME280_pressure;Samples;Min_cycle;Max_cycle;Signal;HPM_P1;HPM_P2
2021/07/07 00:00:17;;;;;;;7.57;3.10;;;18.50;99.90;18.40;99411.00;;;;345157;28;89350;-89
2021/07/07 00:00:28;;;;;;;9.07;2.95;;;18.50;99.90;18.40;99405.00;;;;343066;28;82315;-89
2021/07/07 00:00:40;;;;;;;5.97;3.10;;;18.50;99.90;18.40;99411.00;;;;341462;28;88898;-90
2021/07/07 00:00:54;;;;;;;5.85;3.10;;;18.50;99.90;18.30;99412.00;;;;342491;28;83445;-88
2021/07/07 00:01:06;;;;;;;4.15;2.90;;;18.50;99.90;18.40;99402.00;;;;342792;28;89980;-88
2021/07/07 00:01:18;;;;;;;3.63;2.80;;;18.50;99.90;18.40;99409.00;;;;341747;28;83460;-89
2021/07/07 00:01:30;;;;;;;3.67;2.50;;;18.50;99.90;18.30;99406.00;;;;342717;28;91678;-89
2021/07/07 00:01:42;;;;;;;4.10;2.70;;;18.50;99.90;18.20;99407.00;;;;340559;28;83300;-89
2021/07/07 00:01:54;;;;;;;4.05;2.67;;;18.50;99.90;18.10;99397.00;;;;342584;28;91880;-89
2021/07/07 00:02:05;;;;;;;4.05;3.13;;;18.50;99.90;18.20;99407.00;;;;341773;28;83641;-89
2021/07/07 00:02:17;;;;;;;4.38;3.17;;;18.50;99.90;18.20;99408.00;;;;341451;28;91409;-89
2021/07/07 00:02:29;;;;;;;4.38;3.33;;;18.40;99.90;18.30;99406.00;;;;344574;28;82356;-89
2021/07/07 00:02:41;;;;;;;4.60;3.00;;;18.40;99.90;18.20;99411.00;;;;342702;28;91554;-89
2021/07/07 00:02:53;;;;;;;4.18;2.90;;;18.40;99.90;18.20;99403.00;;;;343559;28;85296;-88
2021/07/07 00:03:05;;;;;;;4.32;2.90;;;18.40;99.90;18.20;99412.00;;;;344059;28;89546;-89
2021/07/07 00:03:16;;;;;;;3.75;2.90;;;18.40;99.90;18.20;99410.00;;;;343135;28;83587;-89
2021/07/07 00:03:28;;;;;;;7.03;2.85;;;18.40;99.90;18.10;99411.00;;;;341647;28;87973;-89
2021/07/07 00:03:40;;;;;;;7.63;3.00;;;18.40;99.90;18.10;99408.00;;;;341941;28;83314;-89
2021/07/07 00:03:52;;;;;;;4.90;3.00;;;18.40;99.90;18.10;99409.00;;;;343557;28;89967;-89
2021/07/07 00:04:04;;;;;;;4.20;3.25;;;18.40;99.90;18.10;99409.00;;;;344424;28;83506;-90
2021/07/07 00:04:16;;;;;;;4.00;3.30;;;18.40;99.90;18.10;99409.00;;;;342870;28;91093;-89
2021/07/07 00:04:28;;;;;;;4.30;3.42;;;18.40;99.90;18.20;99407.00;;;;343248;28;83116;-89
2021/07/07 00:04:39;;;;;;;4.05;3.20;;;18.40;99.90;18.30;99407.00;;;;344105;28;91067;-89
2021/07/07 00:04:52;;;;;;;4.15;3.22;;;18.40;99.90;18.30;99402.00;;;;343160;28;84168;-89
2021/07/07 00:05:06;;;;;;;3.42;2.83;;;18.40;99.90;18.30;99415.00;;;;342901;28;89935;-90
2021/07/07 00:05:18;;;;;;;3.63;2.78;;;18.40;99.90;18.20;99413.00;;;;341614;28;83006;-89
2021/07/07 00:05:31;;;;;;;3.90;2.88;;;18.40;99.90;18.20;99407.00;;;;343009;28;88446;-89
2021/07/07 00:05:42;;;;;;;3.80;2.63;;;18.40;99.90;18.10;99406.00;;;;341627;28;83892;-89
2021/07/07 00:05:54;;;;;;;3.58;2.65;;;18.40;99.90;18.10;99405.00;;;;342076;28;90377;-89
2021/07/07 00:06:06;;;;;;;4.00;2.88;;;18.40;99.90;18.20;99408.00;;;;342867;28;83597;-89
2021/07/07 00:06:18;;;;;;;4.03;2.92;;;18.40;99.90;18.20;99407.00;;;;343078;28;92750;-89
2021/07/07 00:06:30;;;;;;;3.78;2.83;;;18.40;99.90;18.20;99411.00;;;;343116;28;83417;-89
2021/07/07 00:06:42;;;;;;;3.95;2.90;;;18.40;99.90;18.40;99398.00;;;;342549;28;92688;-89
2021/07/07 00:06:54;;;;;;;4.28;2.92;;;18.40;99.90;18.30;99405.00;;;;343013;28;83194;-89
2021/07/07 00:07:05;;;;;;;4.25;3.20;;;18.40;99.90;18.20;99405.00;;;;340030;28;91301;-89
2021/07/07 00:07:17;;;;;;;4.35;3.38;;;18.40;99.90;18.00;99403.00;;;;342861;28;84387;-89
2021/07/07 00:07:29;;;;;;;3.90;3.10;;;18.40;99.90;18.20;99407.00;;;;344058;28;89484;-89
2021/07/07 00:07:41;;;;;;;4.20;3.17;;;18.40;99.90;18.40;99408.00;;;;341570;28;85713;-89
2021/07/07 00:07:54;;;;;;;4.65;3.33;;;18.40;99.90;18.20;99400.00;;;;344098;28;89675;-89
2021/07/07 00:08:06;;;;;;;4.80;3.40;;;18.40;99.90;18.20;99402.00;;;;344295;28;83323;-88
2021/07/07 00:08:17;;;;;;;4.25;3.20;;;18.40;99.90;18.20;99408.00;;;;342716;28;89216;-89
2021/07/07 00:08:29;;;;;;;4.57;3.20;;;18.40;99.90;18.10;99407.00;;;;343172;28;83378;-89
2021/07/07 00:08:41;;;;;;;4.50;3.25;;;18.40;99.90;18.10;99406.00;;;;342576;28;89245;-88
2021/07/07 00:08:53;;;;;;;4.78;3.22;;;18.40;99.90;18.10;99412.00;;;;342226;28;83452;-89
2021/07/07 00:09:05;;;;;;;4.93;3.38;;;18.40;99.90;18.10;99412.00;;;;342653;28;89094;-89
2021/07/07 00:09:16;;;;;;;6.15;3.55;;;18.40;99.90;18.20;99415.00;;;;342446;28;84279;-89
2021/07/07 00:09:28;;;;;;;6.43;3.60;;;18.40;99.90;18.10;99408.00;;;;342647;28;90876;-90
2021/07/07 00:09:40;;;;;;;4.93;3.20;;;18.40;99.90;18.10;99400.00;;;;343013;28;83806;-89
2021/07/07 00:09:52;;;;;;;4.63;3.17;;;18.40;99.90;18.10;99415.00;;;;341941;28;90808;-89
2021/07/07 00:10:06;;;;;;;4.22;3.28;;;18.30;99.90;18.00;99411.00;;;;341594;28;85382;-89
2021/07/07 00:10:18;;;;;;;4.38;3.33;;;18.30;99.90;18.10;99423.00;;;;342546;28;92217;-89
2021/07/07 00:10:34;;;;;;;4.30;3.47;;;18.40;99.90;18.10;99416.00;;;;344537;28;82244;-89
2021/07/07 00:10:45;;;;;;;4.43;3.75;;;18.40;99.90;18.00;99416.00;;;;343979;28;90974;-89
2021/07/07 00:10:58;;;;;;;4.63;3.58;;;18.30;99.90;18.00;99414.00;;;;341669;28;83413;-89
2021/07/07 00:11:10;;;;;;;4.70;3.47;;;18.30;99.90;18.00;99408.00;;;;342648;28;89131;-90
2021/07/07 00:11:21;;;;;;;5.03;3.67;;;18.30;99.90;17.90;99418.00;;;;344204;28;82373;-88
2021/07/07 00:11:33;;;;;;;5.82;3.63;;;18.30;99.90;17.90;99415.00;;;;342663;28;89700;-90
2021/07/07 00:11:45;;;;;;;6.63;3.92;;;18.30;99.90;18.00;99420.00;;;;343788;28;85816;-89
2021/07/07 00:11:57;;;;;;;6.03;3.75;;;18.30;99.90;17.90;99418.00;;;;341909;28;92591;-89
2021/07/07 00:12:09;;;;;;;4.80;3.30;;;18.30;99.90;18.00;99417.00;;;;341664;28;84358;-89
2021/07/07 00:12:21;;;;;;;4.05;3.40;;;18.30;99.90;18.00;99427.00;;;;342158;28;89319;-89
2021/07/07 00:12:33;;;;;;;4.25;3.65;;;18.30;99.90;18.00;99419.00;;;;344263;28;85398;-90
2021/07/07 00:12:46;;;;;;;5.00;3.85;;;18.30;99.90;18.00;99421.00;;;;341336;28;89376;-89
2021/07/07 00:12:59;;;;;;;4.95;3.40;;;18.30;99.90;18.00;99417.00;;;;341669;28;83770;-89
2021/07/07 00:13:11;;;;;;;4.38;3.20;;;18.30;99.90;17.90;99422.00;;;;344019;28;91306;-89
2021/07/07 00:13:23;;;;;;;4.50;3.33;;;18.30;99.90;17.90;99420.00;;;;341506;28;83544;-89
2021/07/07 00:13:35;;;;;;;4.22;3.17;;;18.30;99.90;17.90;99423.00;;;;341485;28;88237;-89
2021/07/07 00:13:47;;;;;;;3.85;2.90;;;18.30;99.90;17.90;99419.00;;;;340447;28;82672;-90
2021/07/07 00:13:59;;;;;;;4.60;3.08;;;18.30;99.90;18.00;99422.00;;;;339802;28;92899;-89
2021/07/07 00:14:10;;;;;;;4.20;2.90;;;18.30;99.90;18.10;99419.00;;;;343219;28;82334;-90
2021/07/07 00:14:23;;;;;;;4.53;2.95;;;18.30;99.90;18.20;99423.00;;;;339936;28;92861;-90
2021/07/07 00:14:34;;;;;;;4.35;3.05;;;18.30;99.90;18.20;99420.00;;;;341328;28;83709;-89
2021/07/07 00:14:46;;;;;;;5.10;3.25;;;18.30;99.90;18.20;99423.00;;;;341252;28;89636;-89
2021/07/07 00:14:59;;;;;;;4.47;3.05;;;18.30;99.90;18.20;99422.00;;;;344301;28;83596;-89
2021/07/07 00:15:14;;;;;;;4.40;3.17;;;18.30;99.90;18.20;99427.00;;;;344167;28;89511;-90
2021/07/07 00:15:31;;;;;;;4.50;3.00;;;18.30;99.90;18.10;99428.00;;;;344403;28;82425;-89
2021/07/07 00:15:43;;;;;;;4.97;3.10;;;18.30;99.90;18.10;99423.00;;;;344027;28;89489;-88
2021/07/07 00:15:55;;;;;;;4.70;3.35;;;18.30;99.90;18.10;99419.00;;;;344181;28;84797;-89
2021/07/07 00:16:07;;;;;;;4.18;3.35;;;18.30;99.90;18.10;99417.00;;;;342642;28;89955;-89
2021/07/07 00:16:18;;;;;;;3.67;3.25;;;18.30;99.90;18.10;99413.00;;;;343024;28;85150;-90
2021/07/07 00:16:30;;;;;;;4.05;3.40;;;18.30;99.90;18.20;99421.00;;;;341385;28;88912;-90
2021/07/07 00:16:42;;;;;;;4.47;3.65;;;18.30;99.90;18.10;99418.00;;;;343061;28;82438;-89
2021/07/07 00:16:54;;;;;;;4.47;3.70;;;18.30;99.90;18.10;99415.00;;;;341316;28;89520;-89
2021/07/07 00:17:06;;;;;;;4.32;3.67;;;18.30;99.90;18.10;99420.00;;;;344421;28;83188;-89
2021/07/07 00:17:19;;;;;;;4.43;3.78;;;18.30;99.90;18.10;99416.00;;;;343630;28;90835;-88
2021/07/07 00:17:31;;;;;;;4.25;3.70;;;18.30;99.90;18.10;99418.00;;;;344343;28;83446;-89
2021/07/07 00:17:43;;;;;;;4.47;3.42;;;18.30;99.90;18.10;99409.00;;;;342548;28;91174;-89
2021/07/07 00:17:55;;;;;;;5.10;3.58;;;18.30;99.90;18.10;99411.00;;;;346779;28;83524;-89
2021/07/07 00:18:09;;;;;;;5.93;3.97;;;18.30;99.90;18.10;99411.00;;;;343664;28;93926;-89
2021/07/07 00:18:21;;;;;;;6.15;4.38;;;18.30;99.90;18.20;99415.00;;;;341637;28;84455;-90
2021/07/07 00:18:45;;;;;;;4.90;4.28;;;18.30;99.90;18.30;99414.00;;;;341215;28;92073;-89
2021/07/07 00:18:57;;;;;;;4.68;3.90;;;18.30;99.90;18.30;99409.00;;;;342910;28;85312;-89
2021/07/07 00:19:09;;;;;;;5.35;3.80;;;18.30;99.90;18.30;99405.00;;;;341305;28;90812;-90
2021/07/07 00:19:21;;;;;;;5.43;3.70;;;18.30;99.90;18.30;99412.00;;;;342982;28;83137;-89
2021/07/07 00:19:33;;;;;;;6.43;3.92;;;18.30;99.90;18.30;99410.00;;;;342732;28;89271;-89
2021/07/07 00:19:44;;;;;;;6.03;3.83;;;18.30;99.90;18.20;99407.00;;;;343058;28;83129;-89
2021/07/07 00:19:56;;;;;;;6.00;3.88;;;18.30;99.90;18.30;99399.00;;;;341195;28;91424;-90
2021/07/07 00:20:09;;;;;;;5.10;3.70;;;18.30;99.90;18.30;99408.00;;;;341817;28;82318;-89
2021/07/07 00:20:21;;;;;;;5.40;3.80;;;18.30;99.90;18.40;99407.00;;;;342633;28;91004;-89
2021/07/07 00:20:38;;;;;;;5.50;3.95;;;18.30;99.90;18.30;99407.00;;;;342835;28;83387;-89
2021/07/07 00:20:55;;;;;;;5.15;3.90;;;18.30;99.90;18.40;99404.00;;;;342648;28;92078;-89
2021/07/07 00:21:08;;;;;;;4.18;3.35;;;18.30;99.90;18.40;99408.00;;;;342783;28;83019;-89
2021/07/07 00:21:20;;;;;;;4.65;3.53;;;18.40;99.90;18.30;99406.00;;;;343897;28;90814;-89
2021/07/07 00:21:33;;;;;;;4.88;3.38;;;18.40;99.90;18.20;99407.00;;;;345620;28;85119;-89
2021/07/07 00:21:45;;;;;;;5.07;3.20;;;18.40;99.90;18.30;99406.00;;;;339862;28;91966;-90
2021/07/07 00:22:00;;;;;;;6.00;3.58;;;18.40;99.90;18.30;99402.00;;;;341610;28;83341;-89
2021/07/07 00:22:14;;;;;;;5.60;3.60;;;18.40;99.90;18.20;99404.00;;;;342813;28;89084;-89
2021/07/07 00:22:26;;;;;;;4.53;3.17;;;18.40;99.90;18.20;99407.00;;;;341674;28;84027;-89
2021/07/07 00:22:37;;;;;;;5.18;3.20;;;18.40;99.90;18.20;99411.00;;;;342500;28;91789;-90
2021/07/07 00:22:49;;;;;;;5.63;3.13;;;18.40;99.90;18.20;99404.00;;;;342877;28;83302;-89
2021/07/07 00:23:01;;;;;;;6.25;3.30;;;18.40;99.90;18.20;99406.00;;;;341453;28;88840;-90
2021/07/07 00:23:13;;;;;;;6.82;3.70;;;18.40;99.90;18.30;99401.00;;;;341727;28;83265;-89
2021/07/07 00:23:27;;;;;;;7.15;3.97;;;18.40;99.90;18.30;99404.00;;;;344003;28;89807;-90
2021/07/07 00:23:39;;;;;;;6.25;3.70;;;18.40;99.90;18.10;99408.00;;;;341402;28;84667;-89
2021/07/07 00:23:50;;;;;;;5.45;3.60;;;18.40;99.90;18.10;99405.00;;;;340854;28;89168;-89
2021/07/07 00:24:02;;;;;;;4.78;3.72;;;18.40;99.90;18.10;99410.00;;;;341612;28;83399;-89
2021/07/07 00:24:14;;;;;;;5.88;4.07;;;18.40;99.90;18.00;99403.00;;;;339756;28;89438;-89
2021/07/07 00:24:27;;;;;;;5.75;3.78;;;18.40;99.90;18.10;99401.00;;;;340412;28;83490;-90
2021/07/07 00:24:38;;;;;;;4.82;3.40;;;18.40;99.90;18.10;99406.00;;;;341104;28;92324;-90
2021/07/07 00:24:50;;;;;;;4.50;3.53;;;18.40;99.90;18.20;99402.00;;;;342237;28;82389;-89
2021/07/07 00:25:03;;;;;;;4.95;3.65;;;18.40;99.90;18.10;99397.00;;;;342655;28;92584;-89
2021/07/07 00:25:16;;;;;;;4.70;3.50;;;18.40;99.90;18.10;99405.00;;;;340457;28;82194;-89
2021/07/07 00:25:28;;;;;;;6.47;3.58;;;18.30;99.90;18.20;99397.00;;;;340197;28;89088;-89
2021/07/07 00:25:40;;;;;;;6.80;3.67;;;18.40;99.90;18.20;99398.00;;;;341633;28;84055;-90
2021/07/07 00:25:52;;;;;;;5.95;3.47;;;18.40;99.90;18.20;99395.00;;;;341328;28;91393;-89
2021/07/07 00:26:03;;;;;;;4.30;3.15;;;18.40;99.90;18.20;99402.00;;;;344419;28;85555;-89
2021/07/07 00:26:15;;;;;;;4.25;3.10;;;18.40;99.90;18.20;99390.00;;;;342576;28;89764;-88
2021/07/07 00:26:28;;;;;;;5.07;3.63;;;18.40;99.90;18.20;99388.00;;;;342975;28;84174;-89
2021/07/07 00:26:39;;;;;;;5.60;4.03;;;18.40;99.90;18.10;99397.00;;;;346699;27;91298;-89
2021/07/07 00:26:51;;;;;;;6.38;4.00;;;18.30;99.90;18.10;99386.00;;;;344675;28;85261;-89
2021/07/07 00:27:03;;;;;;;5.60;3.83;;;18.30;99.90;18.20;99390.00;;;;345491;28;88853;-89
2021/07/07 00:27:15;;;;;;;5.50;3.95;;;18.30;99.90;18.30;99386.00;;;;344234;28;83489;-89
2021/07/07 00:27:27;;;;;;;4.93;4.13;;;18.40;99.90;18.10;99387.00;;;;341277;28;91131;-89
2021/07/07 00:27:38;;;;;;;5.05;4.30;;;18.40;99.90;18.20;99381.00;;;;343011;28;83876;-89
2021/07/07 00:27:50;;;;;;;4.80;3.90;;;18.30;99.90;18.30;99381.00;;;;343805;28;92734;-89
2021/07/07 00:28:03;;;;;;;4.93;3.92;;;18.40;99.90;18.20;99378.00;;;;344488;28;82571;-89
2021/07/07 00:28:15;;;;;;;5.47;3.80;;;18.30;99.90;18.10;99366.00;;;;342750;28;89730;-90
2021/07/07 00:28:27;;;;;;;5.28;3.83;;;18.30;99.90;18.00;99377.00;;;;344477;28;83243;-89
2021/07/07 00:28:39;;;;;;;4.97;3.97;;;18.30;99.90;18.10;99370.00;;;;342242;28;93559;-89
2021/07/07 00:28:50;;;;;;;5.15;4.03;;;18.30;99.90;18.00;99368.00;;;;343104;28;82572;-89
2021/07/07 00:29:02;;;;;;;5.97;4.38;;;18.30;99.90;18.00;99368.00;;;;343824;28;90742;-88
2021/07/07 00:29:14;;;;;;;6.43;4.10;;;18.30;99.90;18.10;99373.00;;;;344119;28;82430;-89
2021/07/07 00:29:26;;;;;;;5.53;3.60;;;18.30;99.90;18.10;99364.00;;;;343989;28;91377;-89
2021/07/07 00:29:38;;;;;;;4.72;3.58;;;18.30;99.90;18.10;99373.00;;;;341586;28;83507;-89
2021/07/07 00:29:51;;;;;;;4.30;3.53;;;18.30;99.90;18.10;99370.00;;;;341702;28;89975;-89
2021/07/07 00:30:05;;;;;;;4.90;3.60;;;18.30;99.90;18.10;99373.00;;;;342234;28;82444;-89
2021/07/07 00:30:17;;;;;;;7.47;3.85;;;18.30;99.90;18.30;99372.00;;;;341303;28;89821;-89
2021/07/07 00:30:29;;;;;;;6.88;3.65;;;18.30;99.90;18.40;99361.00;;;;341643;28;85089;-90
2021/07/07 00:30:41;;;;;;;7.55;3.70;;;18.30;99.90;18.30;99371.00;;;;340975;28;91674;-89
2021/07/07 00:30:53;;;;;;;7.05;3.70;;;18.30;99.90;18.20;99372.00;;;;340149;28;83648;-89
2021/07/07 00:31:05;;;;;;;5.03;4.07;;;18.30;99.90;18.20;99381.00;;;;343834;28;89922;-89
2021/07/07 00:31:17;;;;;;;5.13;4.20;;;18.30;99.90;18.10;99379.00;;;;345634;28;83369;-90
2021/07/07 00:31:29;;;;;;;5.38;3.80;;;18.30;99.90;18.20;99383.00;;;;342594;28;90786;-89
2021/07/07 00:31:41;;;;;;;6.10;3.80;;;18.30;99.90;18.20;99383.00;;;;343075;28;82468;-89
2021/07/07 00:31:53;;;;;;;6.28;4.00;;;18.30;99.90;18.20;99389.00;;;;341224;28;89425;-89
2021/07/07 00:32:05;;;;;;;6.07;4.07;;;18.40;99.90;18.20;99393.00;;;;340272;28;83713;-90
2021/07/07 00:32:18;;;;;;;5.75;4.00;;;18.30;99.90;18.20;99397.00;;;;343938;28;93119;-90
2021/07/07 00:32:30;;;;;;;6.20;3.83;;;18.30;99.90;18.10;99392.00;;;;344307;28;83437;-90
2021/07/07 00:32:41;;;;;;;5.53;3.83;;;18.30;99.90;18.10;99403.00;;;;341065;28;92351;-89
2021/07/07 00:32:54;;;;;;;6.35;3.97;;;18.30;99.90;18.20;99404.00;;;;342540;28;85020;-89
2021/07/07 00:33:06;;;;;;;7.10;4.18;;;18.30;99.90;18.30;99399.00;;;;342559;28;90405;-89
2021/07/07 00:33:18;;;;;;;6.35;3.63;;;18.30;99.90;18.20;99407.00;;;;344161;28;83530;-89
2021/07/07 00:33:30;;;;;;;6.55;3.53;;;18.30;99.90;18.20;99399.00;;;;339975;28;88925;-89
2021/07/07 00:33:42;;;;;;;5.43;3.72;;;18.30;99.90;18.30;99396.00;;;;341531;28;83177;-89
2021/07/07 00:33:53;;;;;;;5.55;4.05;;;18.40;99.90;18.30;99406.00;;;;340776;28;88388;-89
2021/07/07 00:34:05;;;;;;;4.80;3.78;;;18.40;99.90;18.30;99401.00;;;;342670;28;85236;-89
2021/07/07 00:34:17;;;;;;;4.70;3.78;;;18.40;99.90;18.20;99412.00;;;;344042;28;89194;-89
2021/07/07 00:34:29;;;;;;;4.68;3.72;;;18.40;99.90;18.20;99412.00;;;;344339;28;83846;-90
2021/07/07 00:34:41;;;;;;;4.57;3.65;;;18.40;99.90;18.20;99414.00;;;;343929;28;89941;-88
2021/07/07 00:34:53;;;;;;;4.72;3.28;;;18.40;99.90;18.20;99408.00;;;;342942;28;83462;-89
2021/07/07 00:35:05;;;;;;;4.55;3.00;;;18.40;99.90;18.20;99411.00;;;;343990;28;92661;-90
2021/07/07 00:35:17;;;;;;;4.93;3.13;;;18.40;99.90;18.20;99411.00;;;;340185;28;85642;-89
2021/07/07 00:35:29;;;;;;;4.60;3.28;;;18.40;99.90;18.30;99419.00;;;;344040;28;91106;-89
2021/07/07 00:35:41;;;;;;;5.45;3.67;;;18.40;99.90;18.30;99415.00;;;;342974;28;83195;-88
2021/07/07 00:35:53;;;;;;;5.05;3.65;;;18.40;99.90;18.30;99415.00;;;;343400;28;89373;-89
2021/07/07 00:36:05;;;;;;;4.80;3.63;;;18.40;99.90;18.30;99415.00;;;;341396;28;86102;-89
2021/07/07 00:36:17;;;;;;;4.80;3.70;;;18.40;99.90;18.20;99419.00;;;;340856;28;91151;-89
2021/07/07 00:36:29;;;;;;;5.32;3.63;;;18.40;99.90;18.20;99420.00;;;;344227;28;83430;-89
2021/07/07 00:36:40;;;;;;;5.53;3.63;;;18.40;99.90;18.30;99417.00;;;;343951;28;89945;-90
2021/07/07 00:36:52;;;;;;;5.88;3.65;;;18.40;99.90;18.40;99411.00;;;;343420;28;85542;-89
2021/07/07 00:37:04;;;;;;;5.30;3.67;;;18.40;99.90;18.40;99418.00;;;;341228;28;91029;-89
2021/07/07 00:37:16;;;;;;;4.53;3.20;;;18.40;99.90;18.30;99414.00;;;;343041;28;83460;-89
2021/07/07 00:37:27;;;;;;;4.85;3.67;;;18.40;99.90;18.20;99416.00;;;;341041;28;91779;-89
2021/07/07 00:37:39;;;;;;;4.60;3.80;;;18.40;99.90;18.40;99414.00;;;;341728;28;83143;-89
2021/07/07 00:37:51;;;;;;;4.80;4.05;;;18.40;99.90;18.40;99422.00;;;;341472;28;89968;-89
2021/07/07 00:38:04;;;;;;;5.10;3.92;;;18.40;99.90;18.40;99418.00;;;;340378;28;83800;-89
2021/07/07 00:38:16;;;;;;;5.03;3.70;;;18.40;99.90;18.30;99411.00;;;;342744;28;92797;-90
2021/07/07 00:38:28;;;;;;;5.07;3.28;;;18.40;99.90;18.20;99419.00;;;;344233;28;82865;-89
2021/07/07 00:38:40;;;;;;;4.65;3.17;;;18.40;99.90;18.20;99418.00;;;;341290;28;90262;-90
2021/07/07 00:38:52;;;;;;;5.43;3.45;;;18.40;99.90;18.30;99421.00;;;;340917;28;84154;-89
2021/07/07 00:39:04;;;;;;;5.18;3.47;;;18.40;99.90;18.20;99423.00;;;;341966;28;89476;-89
2021/07/07 00:39:16;;;;;;;5.47;3.72;;;18.40;99.90;18.30;99416.00;;;;341591;28;82492;-89
2021/07/07 00:39:28;;;;;;;5.18;3.67;;;18.40;99.90;18.30;99418.00;;;;342672;28;89621;-89
2021/07/07 00:39:40;;;;;;;4.70;3.70;;;18.40;99.90;18.30;99427.00;;;;342950;28;83822;-88
2021/07/07 00:39:52;;;;;;;4.75;3.78;;;18.40;99.90;18.30;99422.00;;;;343465;28;89869;-89
2021/07/07 00:40:05;;;;;;;5.88;3.97;;;18.40;99.90;18.20;99426.00;;;;343106;28;82471;-89
2021/07/07 00:40:17;;;;;;;5.90;3.88;;;18.40;99.90;18.30;99422.00;;;;343899;28;92930;-89
2021/07/07 00:40:29;;;;;;;6.25;3.70;;;18.40;99.90;18.30;99419.00;;;;341804;28;82413;-90
2021/07/07 00:40:42;;;;;;;6.65;3.75;;;18.40;99.90;18.40;99426.00;;;;342607;28;89999;-89
2021/07/07 00:40:56;;;;;;;6.90;3.50;;;18.40;99.90;18.40;99425.00;;;;342993;28;85131;-89
2021/07/07 00:41:08;;;;;;;4.88;3.72;;;18.40;99.90;18.40;99423.00;;;;345412;28;88288;-90
2021/07/07 00:41:20;;;;;;;4.53;3.72;;;18.50;99.90;18.50;99419.00;;;;340247;28;83414;-89
2021/07/07 00:41:31;;;;;;;4.93;4.00;;;18.50;99.90;18.40;99422.00;;;;341287;28;91105;-89
2021/07/07 00:41:43;;;;;;;4.60;3.75;;;18.50;99.90;18.40;99415.00;;;;343167;28;83046;-89
2021/07/07 00:41:55;;;;;;;4.70;3.92;;;18.50;99.90;18.40;99415.00;;;;344217;28;92445;-89
2021/07/07 00:42:08;;;;;;;4.78;3.88;;;18.50;99.90;18.40;99422.00;;;;341179;28;84478;-89
2021/07/07 00:42:20;;;;;;;6.75;4.10;;;18.50;99.90;18.40;99426.00;;;;342585;28;89942;-89
2021/07/07 00:42:32;;;;;;;6.55;4.07;;;18.50;99.90;18.40;99416.00;;;;344289;28;83470;-88
2021/07/07 00:42:44;;;;;;;6.20;3.95;;;18.50;99.90;18.50;99417.00;;;;344001;28;93159;-90
2021/07/07 00:42:56;;;;;;;4.50;3.53;;;18.50;99.90;18.50;99426.00;;;;343084;28;83494;-90
2021/07/07 00:43:14;;;;;;;5.57;3.65;;;18.50;99.90;18.60;99419.00;;;;341416;28;90622;-89
2021/07/07 00:43:26;;;;;;;5.85;3.63;;;18.50;99.90;18.70;99418.00;;;;343218;28;82720;-89
2021/07/07 00:43:40;;;;;;;4.85;3.38;;;18.50;99.90;18.80;99422.00;;;;338823;28;89643;-89
2021/07/07 00:43:52;;;;;;;4.13;3.22;;;18.60;99.90;18.80;99422.00;;;;341645;28;83283;-90
2021/07/07 00:44:04;;;;;;;4.63;2.90;;;18.60;99.90;18.80;99412.00;;;;341362;28;89441;-89
2021/07/07 00:44:16;;;;;;;5.05;3.00;;;18.70;99.90;18.80;99422.00;;;;342960;28;85256;-89
2021/07/07 00:44:27;;;;;;;4.40;3.30;;;18.60;99.90;18.80;99422.00;;;;344038;28;89433;-90
2021/07/07 00:44:39;;;;;;;4.38;3.45;;;18.60;99.90;18.60;99419.00;;;;344438;28;83373;-89
2021/07/07 00:44:51;;;;;;;4.32;3.63;;;18.60;99.90;18.60;99414.00;;;;342959;28;91777;-89
2021/07/07 00:45:04;;;;;;;4.22;3.65;;;18.60;99.90;18.50;99414.00;;;;341493;28;84188;-89
2021/07/07 00:45:16;;;;;;;5.15;3.80;;;18.60;99.90;18.50;99408.00;;;;341134;28;91554;-90
2021/07/07 00:45:28;;;;;;;5.75;3.55;;;18.60;99.90;18.50;99405.00;;;;341744;28;83303;-89
2021/07/07 00:45:40;;;;;;;5.32;3.33;;;18.60;99.90;18.60;99409.00;;;;341273;28;92586;-89
2021/07/07 00:45:52;;;;;;;4.60;3.33;;;18.60;99.90;18.60;99406.00;;;;344318;28;82529;-89
2021/07/07 00:46:03;;;;;;;4.53;3.53;;;18.60;99.90;18.60;99405.00;;;;342651;28;89745;-89
2021/07/07 00:46:15;;;;;;;5.00;3.67;;;18.60;99.90;18.60;99406.00;;;;343052;28;83447;-89
2021/07/07 00:46:27;;;;;;;4.57;3.53;;;18.60;99.90;18.60;99413.00;;;;343847;28;89724;-89
2021/07/07 00:46:39;;;;;;;4.47;3.53;;;18.60;99.90;18.60;99406.00;;;;344106;28;84620;-89
2021/07/07 00:46:51;;;;;;;4.03;3.45;;;18.60;99.90;18.50;99396.00;;;;343893;28;90366;-89
2021/07/07 00:47:03;;;;;;;4.15;3.53;;;18.60;99.90;18.50;99408.00;;;;340362;28;83178;-89
2021/07/07 00:47:15;;;;;;;4.55;3.72;;;18.60;99.90;18.60;99404.00;;;;345219;28;92512;-89
2021/07/07 00:47:27;;;;;;;5.15;4.03;;;18.60;99.90;18.50;99401.00;;;;339078;28;82358;-89
2021/07/07 00:47:39;;;;;;;6.40;4.43;;;18.60;99.90;18.50;99394.00;;;;344069;28;89723;-89
2021/07/07 00:47:50;;;;;;;6.00;4.18;;;18.60;99.90;18.60;99396.00;;;;341453;28;83365;-89
2021/07/07 00:48:03;;;;;;;5.13;3.25;;;18.60;99.90;18.60;99400.00;;;;343135;28;89640;-90
2021/07/07 00:48:15;;;;;;;6.22;3.15;;;18.60;99.90;18.60;99398.00;;;;344271;28;83317;-90
2021/07/07 00:48:27;;;;;;;6.50;3.42;;;18.50;99.90;18.60;99388.00;;;;343948;28;90769;-89
2021/07/07 00:48:38;;;;;;;4.78;3.60;;;18.50;99.90;18.60;99398.00;;;;341592;28;84324;-89
2021/07/07 00:48:50;;;;;;;4.95;3.55;;;18.50;99.90;18.60;99395.00;;;;341740;28;90782;-89
2021/07/07 00:49:08;;;;;;;5.47;3.60;;;18.60;99.90;18.60;99391.00;;;;341670;28;82622;-90
2021/07/07 00:49:20;;;;;;;5.80;3.55;;;18.60;99.90;18.40;99394.00;;;;345525;28;89056;-89
2021/07/07 00:49:32;;;;;;;4.85;3.30;;;18.50;99.90;18.50;99396.00;;;;342978;28;85162;-89
2021/07/07 00:49:44;;;;;;;4.18;3.13;;;18.50;99.90;18.40;99389.00;;;;342393;28;92302;-90
2021/07/07 00:49:57;;;;;;;4.00;3.30;;;18.50;99.90;18.40;99394.00;;;;344223;28;83310;-90
2021/07/07 00:50:10;;;;;;;4.22;3.42;;;18.50;99.90;18.40;99394.00;;;;342583;28;92394;-89
2021/07/07 00:50:23;;;;;;;3.90;3.35;;;18.50;99.90;18.40;99398.00;;;;343140;28;82425;-89
2021/07/07 00:50:35;;;;;;;4.35;3.60;;;18.50;99.90;18.40;99397.00;;;;344075;28;89810;-89
2021/07/07 00:50:49;;;;;;;4.57;3.50;;;18.50;99.90;18.30;99406.00;;;;343083;28;83637;-89
2021/07/07 00:51:01;;;;;;;4.72;3.65;;;18.50;99.90;18.30;99397.00;;;;342730;28;93320;-89
2021/07/07 00:51:13;;;;;;;4.93;3.80;;;18.50;99.90;18.40;99395.00;;;;344414;28;83168;-89
2021/07/07 00:51:25;;;;;;;5.75;3.97;;;18.50;99.90;18.40;99408.00;;;;344076;28;89710;-89
2021/07/07 00:51:36;;;;;;;5.68;3.80;;;18.50;99.90;18.40;99406.00;;;;342986;28;84976;-89
2021/07/07 00:51:49;;;;;;;5.78;4.00;;;18.50;99.90;18.30;99414.00;;;;342835;28;89408;-89
2021/07/07 00:52:03;;;;;;;4.82;3.95;;;18.50;99.90;18.40;99412.00;;;;338821;28;84171;-89
2021/07/07 00:52:15;;;;;;;5.47;3.60;;;18.50;99.90;18.30;99412.00;;;;344029;28;92048;-89
2021/07/07 00:52:26;;;;;;;5.72;3.58;;;18.50;99.90;18.30;99405.00;;;;342990;28;83296;-89
2021/07/07 00:52:38;;;;;;;6.40;3.50;;;18.50;99.90;18.30;99413.00;;;;342596;28;89358;-88
2021/07/07 00:52:50;;;;;;;6.07;3.58;;;18.50;99.90;18.40;99414.00;;;;341395;28;84317;-89
2021/07/07 00:53:02;;;;;;;4.25;3.50;;;18.50;99.90;18.40;99410.00;;;;341384;28;90762;-88
2021/07/07 00:53:14;;;;;;;4.35;3.47;;;18.50;99.90;18.40;99414.00;;;;344147;28;84069;-89
2021/07/07 00:53:26;;;;;;;4.63;3.67;;;18.50;99.90;18.40;99416.00;;;;339949;28;88799;-89
2021/07/07 00:53:39;;;;;;;4.40;3.45;;;18.50;99.90;18.30;99416.00;;;;342836;28;84101;-89
2021/07/07 00:53:51;;;;;;;4.82;3.58;;;18.50;99.90;18.30;99416.00;;;;340648;28;89557;-88
2021/07/07 00:54:03;;;;;;;5.60;3.97;;;18.50;99.90;18.40;99409.00;;;;344208;28;83454;-88
2021/07/07 00:54:15;;;;;;;5.80;3.65;;;18.50;99.90;18.40;99420.00;;;;345277;28;89511;-89
2021/07/07 00:54:27;;;;;;;5.40;3.70;;;18.50;99.90;18.30;99414.00;;;;343130;28;82284;-89
2021/07/07 00:54:38;;;;;;;4.60;3.50;;;18.50;99.90;18.30;99420.00;;;;341210;28;91825;-89
2021/07/07 00:54:50;;;;;;;5.43;3.47;;;18.50;99.90;18.30;99413.00;;;;344270;28;83190;-89
2021/07/07 00:55:10;;;;;;;5.10;3.33;;;18.50;99.90;18.40;99414.00;;;;339922;28;88761;-89
2021/07/07 00:55:22;;;;;;;4.95;3.40;;;18.50;99.90;18.50;99414.00;;;;338862;28;84520;-89